Share

Gaastra, MI

Amasa Area (KMICRYST4) Elev 1490 ft | 46.22 °N, 88.45 °W | Change Station

Current weather conditions updated 9 minutes ago

Mostly Cloudy
Mostly Cloudy
26.6 °F
Feels Like 27 °F
N
2.2
Wind Variable Wind from SE
Gusts 5.4 mph
Sunrise 6:00 AM
Sunset 7:46 PM
Moon Waning Gibbous

Today is forecast to be Cooler than yesterday. Light rain tonight.

Pressure 30.47 in
Visibility 10.0 miles
Clouds Mostly Cloudy 11000 ft
Windchill 27 °F
Dew Point 26 °F
Humidity 99%
Rainfall 0.00 in
Snow Depth Not available.
UV 0 out of 16
Pollen 8.40 out of 12
Air Quality Not available.
Flu Activity Sporadic
METAR KIMT 190954Z AUTO 22003KT 10SM BKN110 M03/M04 A3042 RMK AO2 SLP316 T10331044

More Conditions Fewer Conditions

Pressure 30.47 in
Visibility 10.0 miles
Clouds Mostly Cloudy 11000 ft
Windchill 27 °F
Dew Point 26 °F
Humidity 99%
Rainfall 0.00 in
Snow Depth Not available.
UV 0 out of 16
Pollen 8.40 out of 12
Air Quality Not available.
Flu Activity Sporadic
METAR KIMT 190954Z AUTO 22003KT 10SM BKN110 M03/M04 A3042 RMK AO2 SLP316 T10331044

More Conditions Fewer Conditions

10-Day Weather Forecast

Almanac

Astronomy

Apr. 19, 2014 Rise Set
Actual Time 6:00 AM CDT 7:46 PM CDT
Civil Twilight 5:29 AM CDT 8:18 PM CDT
Nautical Twilight 4:50 AM CDT 8:57 PM CDT
Astronomical Twilight 4:08 AM CDT 9:39 PM CDT
Moon No Moon Rise 9:11 AM CDT
Length of Visible Light 14h 49m
Length of Day
13h 45m
Tomorrow will be 3m 3s longer.
Waning Gibbous, 81% of the Moon is Illuminated
Today
Waning Gibbous
Apr 22
Last Quarter
Apr 29
New
May 6
First Quarter
May 14
Full

Today's Extremes

State Highs State Lows

Community

  • Bleeding Hearts
    Bleeding Hearts
  • Sunset Silhouettes
    Sunset Silhouettes
  • FL sunset Perico Isle
    FL sunset Perico Isle
  • Cloudy spring view
    Cloudy spring view
  • Old barn
    Old barn

WunderPhotos

Upload Photos

1,702,676 photos uploaded!

WunderBlogs® & News

Nearby

Snow Depth

Station Depth Elevation
No new snow has been reported.

Coastal Water Temperatures

Place Temperature
No Stations Reporting

Earthquake Activity

City Distance Mag. Time & Date
No recent earthquake activity has been reported nearby.
Minimum magnitude displayed is 2.5.

Nearby Weather Stations

Station Location Temp. Windchill Dew Point Humidity Wind Precip. Elev Updated Type
Amasa Area, Crystal Falls, MI 26.6 °F 27 °F 26 °F 99% SE  at  2.2 mph 0.00 in / hr 1490 ft 5:00 AM CDT Normal
Spread Eagle Skies, Florence, WI 26.6 °F 27 °F 22 °F 81% SSW  at  0.0 mph 0.00 in / hr 1224 ft 5:09 AM CDT Rapid Fire
RAWS PHELPS WI, Phelps, WI 28 °F 22 °F 24 °F 84% SE  at  5 mph 0.00 in / hr 1770 ft 4:02 AM CDT MADIS

Show More Stations Show Fewer Stations

What do you think?

We're not finished. Please let us know what you like, what you don't like, and what you are still missing.